Arrifana — CUQG2 — position and weather

sailwx.info

Track history (hours):
 
Tides and Currents Weather Stations Pressure Air Temp Water Temp Dewpoint Dewpoint Depression Visibility Wind Speed Wind Dir Waves Ship Positions

Arrifana

Last reported at 2018-Aug-17 11:13 UTC. Time now 2018-Aug-17 11:42 UTC.
Position N 37°08' W 008°32'.

Length 22 m.

Type: Fishing. MMSI: 263407290.

Date/timePositionNaut miles runAvg speedWind from/ knotsBaromVisibWave heightAir tempDewpointWater temp
2018-Aug-17 11:13N 37°08' W 008°32'0 0.1
2018-Aug-17 11:00N 37°08' W 008°32'0 0.2
2018-Aug-17 10:30N 37°08' W 008°32'0 0.3
2018-Aug-17 09:58N 37°08' W 008°32'1 1.2
2018-Aug-17 09:31N 37°08' W 008°32'4 8.6
2018-Aug-17 09:00N 37°05' W 008°36'5 9.3
2018-Aug-17 08:30N 37°02' W 008°41'0 0.7
2018-Aug-17 08:00N 37°02' W 008°40'0 0.5
2018-Aug-17 07:28N 37°03' W 008°40'1 3.2
2018-Aug-17 07:00N 37°03' W 008°38'2 5.0
2018-Aug-17 06:31N 37°04' W 008°36'510.6
2018-Aug-17 06:00N 37°04' W 008°29'5 9.4
2018-Aug-17 05:31N 37°02' W 008°23'2 4.4
2018-Aug-17 05:01N 36°60' W 008°23'3 6.2
2018-Aug-17 04:30N 37°03' W 008°22'2 4.5
2018-Aug-17 04:01N 37°01' W 008°21'4 7.3
2018-Aug-17 03:31N 37°04' W 008°24'5 9.0
2018-Aug-17 03:00N 37°05' W 008°29'4 7.2
2018-Aug-17 02:30N 37°08' W 008°32'0 0.0
2018-Aug-17 02:00N 37°08' W 008°32'0 0.0
2018-Aug-16 08:50N 37°08' W 008°32'0 0.0
2018-Aug-16 08:30N 37°08' W 008°32'0 0.0
2018-Aug-16 08:00N 37°08' W 008°32'0 0.8
2018-Aug-16 07:31N 37°08' W 008°32'5 9.9
2018-Aug-16 06:58N 37°04' W 008°28'2 3.7
2018-Aug-16 06:31N 37°02' W 008°26'0 0.4
2018-Aug-16 06:01N 37°02' W 008°26'0 0.4
2018-Aug-16 05:31N 37°02' W 008°25'2 3.8
2018-Aug-16 05:01N 37°03' W 008°27'1 2.7
2018-Aug-16 04:31N 37°05' W 008°28'0 0.4
2018-Aug-16 04:01N 37°05' W 008°28'0 0.2
2018-Aug-16 03:31N 37°05' W 008°28'3 6.1
2018-Aug-16 03:01N 37°05' W 008°31'610.2
2018-Aug-16 02:27N 37°05' W 008°39'4 8.4
2018-Aug-16 02:01N 37°04' W 008°43'4 7.0
2018-Aug-16 01:30N 37°05' W 008°39'5 9.5
2018-Aug-16 01:00N 37°06' W 008°33'2 4.2
2018-Aug-16 00:29N 37°08' W 008°32'0 0.0
2018-Aug-15 23:53N 37°08' W 008°32'0 0.0
2018-Aug-15 23:31N 37°08' W 008°32'0 0.0
2018-Aug-14 09:28N 37°08' W 008°32'0 0.0
2018-Aug-14 09:00N 37°08' W 008°32'0 0.0
2018-Aug-14 08:30N 37°08' W 008°32'1 1.7
2018-Aug-14 08:00N 37°07' W 008°31'5 9.9
2018-Aug-14 07:28N 37°04' W 008°36'3 7.1
2018-Aug-14 07:00N 37°02' W 008°40'0 0.5
2018-Aug-14 06:29N 37°02' W 008°40'0 0.4
2018-Aug-14 05:51N 37°02' W 008°40'0 0.2
2018-Aug-14 05:29N 37°03' W 008°40'2 3.9
2018-Aug-14 05:00N 37°04' W 008°39'4 8.2
2018-Aug-14 04:30N 37°05' W 008°34'5 9.8
2018-Aug-14 04:00N 37°04' W 008°40'0 0.4
2018-Aug-14 03:21N 37°05' W 008°40'4 9.2
2018-Aug-14 02:56N 37°06' W 008°35'4 0.2
2018-Aug-13 08:18N 37°08' W 008°32'0 0.0
2018-Aug-13 08:00N 37°08' W 008°32'0 0.0
2018-Aug-13 07:22N 37°08' W 008°32'0 0.8
2018-Aug-13 06:48N 37°08' W 008°32'3 8.9
2018-Aug-13 06:25N 37°05' W 008°34'1 1.0
2018-Aug-13 05:55N 37°05' W 008°35'0 0.1
2018-Aug-13 05:28N 37°05' W 008°35'0 0.1
2018-Aug-13 05:00N 37°05' W 008°35'2 3.4
2018-Aug-13 04:28N 37°05' W 008°33'510.1
2018-Aug-13 03:57N 37°03' W 008°26'1 2.1
2018-Aug-13 03:28N 37°03' W 008°25'4 9.2
2018-Aug-13 03:00N 37°05' W 008°30'3 5.6
2018-Aug-13 02:30N 37°07' W 008°31'5 9.4
2018-Aug-13 02:00N 37°05' W 008°37'510.2
2018-Aug-13 01:31N 37°04' W 008°43'510.0
2018-Aug-13 01:00N 37°02' W 008°49'5 9.2
2018-Aug-13 00:29N 37°01' W 008°55'7 7.6
2018-Aug-12 23:30N 37°04' W 008°46'4 8.3
2018-Aug-12 22:59N 37°04' W 008°41'4 8.9
2018-Aug-12 22:30N 37°05' W 008°35'4 8.4
2018-Aug-12 22:01N 37°08' W 008°32'0 0.4
2018-Aug-12 21:31N 37°08' W 008°32'0 0.0
2018-Aug-12 21:00N 37°08' W 008°32'0 0.3
2018-Aug-12 20:31N 37°08' W 008°32'  
2018-Aug-10 09:27N 37°08' W 008°32'2 5.5
2018-Aug-10 09:00N 37°06' W 008°33'510.4
2018-Aug-10 08:30N 37°02' W 008°38'1 2.4
2018-Aug-10 08:00N 37°01' W 008°37'3 6.9
2018-Aug-10 07:30N 37°03' W 008°33'0 0.3
2018-Aug-10 07:00N 37°03' W 008°33'0 0.3
2018-Aug-10 06:30N 37°03' W 008°33'2 4.5
2018-Aug-10 06:00N 37°03' W 008°30'5 9.8
2018-Aug-10 05:30N 37°03' W 008°24'0 0.3
2018-Aug-10 05:00N 37°03' W 008°24'2 3.3
2018-Aug-10 04:30N 37°02' W 008°26'610.4
2018-Aug-10 03:57N 37°01' W 008°33'3 4.6
2018-Aug-10 03:23N 36°59' W 008°34'3 7.8
2018-Aug-10 03:00N 37°02' W 008°34'4 7.6
2018-Aug-10 02:29N 37°06' W 008°33'2 4.3
2018-Aug-10 01:55N 37°08' W 008°32'0 0.0
2018-Aug-09 11:32N 37°08' W 008°32'0 0.0
2018-Aug-09 11:30N 37°08' W 008°32'0 0.0
2018-Aug-09 11:00N 37°08' W 008°32'0 0.1
2018-Aug-09 10:30N 37°08' W 008°32'2 3.2
2018-Aug-09 10:00N 37°06' W 008°32'0 0.9
2018-Aug-09 09:30N 37°06' W 008°31'1 1.7
2018-Aug-09 09:00N 37°05' W 008°31'2 3.1
2018-Aug-09 08:30N 37°04' W 008°30'2 4.7
2018-Aug-09 08:00N 37°02' W 008°29'2 3.9
2018-Aug-09 07:30N 36°60' W 008°28'0 0.4
2018-Aug-09 07:00N 37°00' W 008°28'0 0.3
2018-Aug-09 06:30N 37°00' W 008°29'0 0.2
2018-Aug-09 06:00N 37°00' W 008°29'1 2.4
2018-Aug-09 05:30N 37°00' W 008°30'5 9.2
2018-Aug-09 05:00N 37°02' W 008°35'510.6
2018-Aug-09 04:30N 37°03' W 008°42'2 4.3
2018-Aug-09 04:00N 37°05' W 008°40'2 4.3
2018-Aug-09 03:30N 37°06' W 008°38'4 8.7
2018-Aug-09 03:00N 37°06' W 008°32'2 3.5
2018-Aug-09 02:30N 37°08' W 008°32'0 0.0
2018-Aug-09 01:57N 37°08' W 008°32'0 0.0
2018-Aug-07 11:25N 37°08' W 008°32'  
Track history (hours):
 
Tides and Currents Weather Stations Pressure Air Temp Water Temp Dewpoint Dewpoint Depression Visibility Wind Speed Wind Dir Waves Ship Positions

Arrifana

Last reported at 2018-Aug-17 11:13 UTC. Time now 2018-Aug-17 11:42 UTC.
Position N 37°08' W 008°32'.

Length 22 m.

Type: Fishing. MMSI: 263407290.

Date/timePositionNaut miles runAvg speedWind from/ knotsBaromVisibWave heightAir tempDewpointWater temp
2018-Aug-17 11:13N 37°08' W 008°32'0 0.1
2018-Aug-17 11:00N 37°08' W 008°32'0 0.2
2018-Aug-17 10:30N 37°08' W 008°32'0 0.3
2018-Aug-17 09:58N 37°08' W 008°32'1 1.2
2018-Aug-17 09:31N 37°08' W 008°32'4 8.6
2018-Aug-17 09:00N 37°05' W 008°36'5 9.3
2018-Aug-17 08:30N 37°02' W 008°41'0 0.7
2018-Aug-17 08:00N 37°02' W 008°40'0 0.5
2018-Aug-17 07:28N 37°03' W 008°40'1 3.2
2018-Aug-17 07:00N 37°03' W 008°38'2 5.0
2018-Aug-17 06:31N 37°04' W 008°36'510.6
2018-Aug-17 06:00N 37°04' W 008°29'5 9.4
2018-Aug-17 05:31N 37°02' W 008°23'2 4.4
2018-Aug-17 05:01N 36°60' W 008°23'3 6.2
2018-Aug-17 04:30N 37°03' W 008°22'2 4.5
2018-Aug-17 04:01N 37°01' W 008°21'4 7.3
2018-Aug-17 03:31N 37°04' W 008°24'5 9.0
2018-Aug-17 03:00N 37°05' W 008°29'4 7.2
2018-Aug-17 02:30N 37°08' W 008°32'0 0.0
2018-Aug-17 02:00N 37°08' W 008°32'0 0.0
2018-Aug-16 08:50N 37°08' W 008°32'0 0.0
2018-Aug-16 08:30N 37°08' W 008°32'0 0.0
2018-Aug-16 08:00N 37°08' W 008°32'0 0.8
2018-Aug-16 07:31N 37°08' W 008°32'5 9.9
2018-Aug-16 06:58N 37°04' W 008°28'2 3.7
2018-Aug-16 06:31N 37°02' W 008°26'0 0.4
2018-Aug-16 06:01N 37°02' W 008°26'0 0.4
2018-Aug-16 05:31N 37°02' W 008°25'2 3.8
2018-Aug-16 05:01N 37°03' W 008°27'1 2.7
2018-Aug-16 04:31N 37°05' W 008°28'0 0.4
2018-Aug-16 04:01N 37°05' W 008°28'0 0.2
2018-Aug-16 03:31N 37°05' W 008°28'3 6.1
2018-Aug-16 03:01N 37°05' W 008°31'610.2
2018-Aug-16 02:27N 37°05' W 008°39'4 8.4
2018-Aug-16 02:01N 37°04' W 008°43'4 7.0
2018-Aug-16 01:30N 37°05' W 008°39'5 9.5
2018-Aug-16 01:00N 37°06' W 008°33'2 4.2
2018-Aug-16 00:29N 37°08' W 008°32'0 0.0
2018-Aug-15 23:53N 37°08' W 008°32'0 0.0
2018-Aug-15 23:31N 37°08' W 008°32'0 0.0
2018-Aug-14 09:28N 37°08' W 008°32'0 0.0
2018-Aug-14 09:00N 37°08' W 008°32'0 0.0
2018-Aug-14 08:30N 37°08' W 008°32'1 1.7
2018-Aug-14 08:00N 37°07' W 008°31'5 9.9
2018-Aug-14 07:28N 37°04' W 008°36'3 7.1
2018-Aug-14 07:00N 37°02' W 008°40'0 0.5
2018-Aug-14 06:29N 37°02' W 008°40'0 0.4
2018-Aug-14 05:51N 37°02' W 008°40'0 0.2
2018-Aug-14 05:29N 37°03' W 008°40'2 3.9
2018-Aug-14 05:00N 37°04' W 008°39'4 8.2
2018-Aug-14 04:30N 37°05' W 008°34'5 9.8
2018-Aug-14 04:00N 37°04' W 008°40'0 0.4
2018-Aug-14 03:21N 37°05' W 008°40'4 9.2
2018-Aug-14 02:56N 37°06' W 008°35'4 0.2
2018-Aug-13 08:18N 37°08' W 008°32'0 0.0
2018-Aug-13 08:00N 37°08' W 008°32'0 0.0
2018-Aug-13 07:22N 37°08' W 008°32'0 0.8
2018-Aug-13 06:48N 37°08' W 008°32'3 8.9
2018-Aug-13 06:25N 37°05' W 008°34'1 1.0
2018-Aug-13 05:55N 37°05' W 008°35'0 0.1
2018-Aug-13 05:28N 37°05' W 008°35'0 0.1
2018-Aug-13 05:00N 37°05' W 008°35'2 3.4
2018-Aug-13 04:28N 37°05' W 008°33'510.1
2018-Aug-13 03:57N 37°03' W 008°26'1 2.1
2018-Aug-13 03:28N 37°03' W 008°25'4 9.2
2018-Aug-13 03:00N 37°05' W 008°30'3 5.6
2018-Aug-13 02:30N 37°07' W 008°31'5 9.4
2018-Aug-13 02:00N 37°05' W 008°37'510.2
2018-Aug-13 01:31N 37°04' W 008°43'510.0
2018-Aug-13 01:00N 37°02' W 008°49'5 9.2
2018-Aug-13 00:29N 37°01' W 008°55'7 7.6
2018-Aug-12 23:30N 37°04' W 008°46'4 8.3
2018-Aug-12 22:59N 37°04' W 008°41'4 8.9
2018-Aug-12 22:30N 37°05' W 008°35'4 8.4
2018-Aug-12 22:01N 37°08' W 008°32'0 0.4
2018-Aug-12 21:31N 37°08' W 008°32'0 0.0
2018-Aug-12 21:00N 37°08' W 008°32'0 0.3
2018-Aug-12 20:31N 37°08' W 008°32'  
2018-Aug-10 09:27N 37°08' W 008°32'2 5.5
2018-Aug-10 09:00N 37°06' W 008°33'510.4
2018-Aug-10 08:30N 37°02' W 008°38'1 2.4
2018-Aug-10 08:00N 37°01' W 008°37'3 6.9
2018-Aug-10 07:30N 37°03' W 008°33'0 0.3
2018-Aug-10 07:00N 37°03' W 008°33'0 0.3
2018-Aug-10 06:30N 37°03' W 008°33'2 4.5
2018-Aug-10 06:00N 37°03' W 008°30'5 9.8
2018-Aug-10 05:30N 37°03' W 008°24'0 0.3
2018-Aug-10 05:00N 37°03' W 008°24'2 3.3
2018-Aug-10 04:30N 37°02' W 008°26'610.4
2018-Aug-10 03:57N 37°01' W 008°33'3 4.6
2018-Aug-10 03:23N 36°59' W 008°34'3 7.8
2018-Aug-10 03:00N 37°02' W 008°34'4 7.6
2018-Aug-10 02:29N 37°06' W 008°33'2 4.3
2018-Aug-10 01:55N 37°08' W 008°32'0 0.0
2018-Aug-09 11:32N 37°08' W 008°32'0 0.0
2018-Aug-09 11:30N 37°08' W 008°32'0 0.0
2018-Aug-09 11:00N 37°08' W 008°32'0 0.1
2018-Aug-09 10:30N 37°08' W 008°32'2 3.2
2018-Aug-09 10:00N 37°06' W 008°32'0 0.9
2018-Aug-09 09:30N 37°06' W 008°31'1 1.7
2018-Aug-09 09:00N 37°05' W 008°31'2 3.1
2018-Aug-09 08:30N 37°04' W 008°30'2 4.7
2018-Aug-09 08:00N 37°02' W 008°29'2 3.9
2018-Aug-09 07:30N 36°60' W 008°28'0 0.4
2018-Aug-09 07:00N 37°00' W 008°28'0 0.3
2018-Aug-09 06:30N 37°00' W 008°29'0 0.2
2018-Aug-09 06:00N 37°00' W 008°29'1 2.4
2018-Aug-09 05:30N 37°00' W 008°30'5 9.2
2018-Aug-09 05:00N 37°02' W 008°35'510.6
2018-Aug-09 04:30N 37°03' W 008°42'2 4.3
2018-Aug-09 04:00N 37°05' W 008°40'2 4.3
2018-Aug-09 03:30N 37°06' W 008°38'4 8.7
2018-Aug-09 03:00N 37°06' W 008°32'2 3.5
2018-Aug-09 02:30N 37°08' W 008°32'0 0.0
2018-Aug-09 01:57N 37°08' W 008°32'0 0.0
2018-Aug-07 11:25N 37°08' W 008°32'  

Dump ship's entire track history